sensor_id;sensor_type;location;lat;lon;timestamp;temperature;humidity
1083;DHT22;530;51.448;7.238;2023-07-31T00:02:03;16.70;99.90
1083;DHT22;530;51.448;7.238;2023-07-31T00:04:29;16.60;99.90
1083;DHT22;530;51.448;7.238;2023-07-31T00:06:55;16.70;99.90
1083;DHT22;530;51.448;7.238;2023-07-31T00:09:20;16.60;99.90
1083;DHT22;530;51.448;7.238;2023-07-31T00:11:46;16.70;99.90
1083;DHT22;530;51.448;7.238;2023-07-31T00:14:12;16.70;99.90
1083;DHT22;530;51.448;7.238;2023-07-31T00:16:37;16.70;99.90
1083;DHT22;530;51.448;7.238;2023-07-31T00:19:03;16.70;99.90
1083;DHT22;530;51.448;7.238;2023-07-31T00:21:29;16.70;99.90
1083;DHT22;530;51.448;7.238;2023-07-31T00:23:54;16.70;99.90
1083;DHT22;530;51.448;7.238;2023-07-31T00:26:20;16.70;99.90
1083;DHT22;530;51.448;7.238;2023-07-31T00:28:46;16.70;99.90
1083;DHT22;530;51.448;7.238;2023-07-31T00:31:11;16.70;99.90
1083;DHT22;530;51.448;7.238;2023-07-31T00:33:38;16.70;99.90
1083;DHT22;530;51.448;7.238;2023-07-31T00:36:03;16.60;99.90
1083;DHT22;530;51.448;7.238;2023-07-31T00:38:29;16.60;99.90
1083;DHT22;530;51.448;7.238;2023-07-31T00:40:55;16.60;99.90
1083;DHT22;530;51.448;7.238;2023-07-31T00:43:20;16.60;99.90
1083;DHT22;530;51.448;7.238;2023-07-31T00:45:46;16.60;99.90
1083;DHT22;530;51.448;7.238;2023-07-31T00:48:12;16.60;99.90
1083;DHT22;530;51.448;7.238;2023-07-31T00:50:37;16.60;99.90
1083;DHT22;530;51.448;7.238;2023-07-31T00:53:04;16.60;99.90
1083;DHT22;530;51.448;7.238;2023-07-31T00:55:30;16.60;99.90
1083;DHT22;530;51.448;7.238;2023-07-31T00:57:56;16.60;99.90
1083;DHT22;530;51.448;7.238;2023-07-31T01:00:22;16.50;99.90
1083;DHT22;530;51.448;7.238;2023-07-31T01:02:49;16.60;99.90
1083;DHT22;530;51.448;7.238;2023-07-31T01:05:15;16.70;99.90
1083;DHT22;530;51.448;7.238;2023-07-31T01:07:49;16.70;99.90
1083;DHT22;530;51.448;7.238;2023-07-31T01:10:26;16.70;99.90
1083;DHT22;530;51.448;7.238;2023-07-31T01:12:55;16.50;99.90
1083;DHT22;530;51.448;7.238;2023-07-31T01:15:22;16.50;99.90
1083;DHT22;530;51.448;7.238;2023-07-31T01:17:47;16.50;99.90
1083;DHT22;530;51.448;7.238;2023-07-31T01:20:22;16.50;99.90
1083;DHT22;530;51.448;7.238;2023-07-31T01:25:59;16.60;99.90
1083;DHT22;530;51.448;7.238;2023-07-31T01:28:55;16.70;99.90
1083;DHT22;530;51.448;7.238;2023-07-31T01:31:20;16.70;99.90
1083;DHT22;530;51.448;7.238;2023-07-31T01:33:49;16.60;99.90
1083;DHT22;530;51.448;7.238;2023-07-31T01:36:15;16.60;99.90
1083;DHT22;530;51.448;7.238;2023-07-31T01:38:41;16.60;99.90
1083;DHT22;530;51.448;7.238;2023-07-31T01:41:07;16.60;99.90
1083;DHT22;530;51.448;7.238;2023-07-31T01:43:33;16.70;99.90
1083;DHT22;530;51.448;7.238;2023-07-31T01:45:58;16.60;99.90
1083;DHT22;530;51.448;7.238;2023-07-31T01:48:24;16.60;99.90
1083;DHT22;530;51.448;7.238;2023-07-31T01:50:49;16.60;99.90
1083;DHT22;530;51.448;7.238;2023-07-31T01:53:15;16.60;99.90
1083;DHT22;530;51.448;7.238;2023-07-31T01:55:41;16.60;99.90
1083;DHT22;530;51.448;7.238;2023-07-31T01:58:07;16.60;99.90
1083;DHT22;530;51.448;7.238;2023-07-31T02:00:32;16.70;99.90
1083;DHT22;530;51.448;7.238;2023-07-31T02:02:59;16.70;99.90
1083;DHT22;530;51.448;7.238;2023-07-31T02:05:25;16.60;99.90
1083;DHT22;530;51.448;7.238;2023-07-31T02:07:51;16.60;99.90
1083;DHT22;530;51.448;7.238;2023-07-31T02:10:16;16.60;99.90
1083;DHT22;530;51.448;7.238;2023-07-31T02:12:42;16.60;99.90
1083;DHT22;530;51.448;7.238;2023-07-31T02:15:08;16.50;99.90
1083;DHT22;530;51.448;7.238;2023-07-31T02:17:34;16.60;99.90
1083;DHT22;530;51.448;7.238;2023-07-31T02:20:00;16.60;99.90
1083;DHT22;530;51.448;7.238;2023-07-31T02:22:25;16.50;99.90
1083;DHT22;530;51.448;7.238;2023-07-31T02:24:51;16.40;99.90
1083;DHT22;530;51.448;7.238;2023-07-31T02:27:17;16.50;99.90
1083;DHT22;530;51.448;7.238;2023-07-31T02:29:42;16.50;99.90
1083;DHT22;530;51.448;7.238;2023-07-31T02:32:08;16.50;99.90
1083;DHT22;530;51.448;7.238;2023-07-31T02:34:34;16.40;99.90
1083;DHT22;530;51.448;7.238;2023-07-31T02:37:00;16.50;99.90
1083;DHT22;530;51.448;7.238;2023-07-31T02:39:25;16.50;99.90
1083;DHT22;530;51.448;7.238;2023-07-31T02:41:51;16.40;99.90
1083;DHT22;530;51.448;7.238;2023-07-31T02:44:16;16.40;99.90
1083;DHT22;530;51.448;7.238;2023-07-31T02:46:42;16.40;99.90
1083;DHT22;530;51.448;7.238;2023-07-31T02:49:08;16.40;99.90
1083;DHT22;530;51.448;7.238;2023-07-31T02:51:33;16.50;99.90
1083;DHT22;530;51.448;7.238;2023-07-31T02:53:59;16.50;99.90
1083;DHT22;530;51.448;7.238;2023-07-31T02:56:24;16.50;99.90
1083;DHT22;530;51.448;7.238;2023-07-31T02:58:50;16.50;99.90
1083;DHT22;530;51.448;7.238;2023-07-31T03:01:16;16.50;99.90
1083;DHT22;530;51.448;7.238;2023-07-31T03:03:42;16.50;99.90
1083;DHT22;530;51.448;7.238;2023-07-31T03:06:07;16.40;99.90
1083;DHT22;530;51.448;7.238;2023-07-31T03:08:33;16.50;99.90
1083;DHT22;530;51.448;7.238;2023-07-31T03:10:59;16.40;99.90
1083;DHT22;530;51.448;7.238;2023-07-31T03:13:24;16.50;99.90
1083;DHT22;530;51.448;7.238;2023-07-31T03:15:50;16.50;99.90
1083;DHT22;530;51.448;7.238;2023-07-31T03:18:16;16.50;99.90
1083;DHT22;530;51.448;7.238;2023-07-31T03:20:43;16.50;99.90
1083;DHT22;530;51.448;7.238;2023-07-31T03:23:09;16.50;99.90
1083;DHT22;530;51.448;7.238;2023-07-31T03:25:35;16.60;99.90
1083;DHT22;530;51.448;7.238;2023-07-31T03:28:00;16.60;99.90
1083;DHT22;530;51.448;7.238;2023-07-31T03:30:26;16.70;99.90
1083;DHT22;530;51.448;7.238;2023-07-31T03:32:52;16.60;99.90
1083;DHT22;530;51.448;7.238;2023-07-31T03:35:18;16.60;99.90
1083;DHT22;530;51.448;7.238;2023-07-31T03:37:43;16.60;99.90
1083;DHT22;530;51.448;7.238;2023-07-31T03:40:10;16.60;99.90
1083;DHT22;530;51.448;7.238;2023-07-31T03:42:35;16.60;99.90
1083;DHT22;530;51.448;7.238;2023-07-31T03:45:01;16.60;99.90
1083;DHT22;530;51.448;7.238;2023-07-31T03:47:27;16.60;99.90
1083;DHT22;530;51.448;7.238;2023-07-31T03:49:53;16.60;99.90
1083;DHT22;530;51.448;7.238;2023-07-31T03:52:18;16.60;99.90
1083;DHT22;530;51.448;7.238;2023-07-31T03:54:44;16.60;99.90
1083;DHT22;530;51.448;7.238;2023-07-31T03:57:10;16.70;99.90
1083;DHT22;530;51.448;7.238;2023-07-31T03:59:36;16.60;99.90
1083;DHT22;530;51.448;7.238;2023-07-31T04:02:04;16.70;99.90
1083;DHT22;530;51.448;7.238;2023-07-31T04:04:30;16.60;99.90
1083;DHT22;530;51.448;7.238;2023-07-31T04:06:56;16.60;99.90
1083;DHT22;530;51.448;7.238;2023-07-31T04:09:21;16.70;99.90
1083;DHT22;530;51.448;7.238;2023-07-31T04:11:47;16.70;99.90
1083;DHT22;530;51.448;7.238;2023-07-31T04:14:13;16.60;99.90
1083;DHT22;530;51.448;7.238;2023-07-31T04:16:38;16.60;99.90
1083;DHT22;530;51.448;7.238;2023-07-31T04:19:04;16.70;99.90
1083;DHT22;530;51.448;7.238;2023-07-31T04:21:30;16.70;99.90
1083;DHT22;530;51.448;7.238;2023-07-31T04:23:55;16.70;99.90
1083;DHT22;530;51.448;7.238;2023-07-31T04:26:22;16.80;99.90
1083;DHT22;530;51.448;7.238;2023-07-31T04:28:47;16.70;99.90
1083;DHT22;530;51.448;7.238;2023-07-31T04:31:13;16.70;99.90
1083;DHT22;530;51.448;7.238;2023-07-31T04:33:39;16.70;99.90
1083;DHT22;530;51.448;7.238;2023-07-31T04:36:05;16.80;99.90
1083;DHT22;530;51.448;7.238;2023-07-31T04:38:30;16.80;99.90
1083;DHT22;530;51.448;7.238;2023-07-31T04:40:56;16.80;99.90
1083;DHT22;530;51.448;7.238;2023-07-31T04:43:22;16.80;99.90
1083;DHT22;530;51.448;7.238;2023-07-31T04:45:48;16.80;99.90
1083;DHT22;530;51.448;7.238;2023-07-31T04:48:14;16.90;99.90
1083;DHT22;530;51.448;7.238;2023-07-31T04:50:40;16.90;99.90
1083;DHT22;530;51.448;7.238;2023-07-31T04:53:06;16.90;99.90
1083;DHT22;530;51.448;7.238;2023-07-31T04:55:31;17.00;99.90
1083;DHT22;530;51.448;7.238;2023-07-31T04:58:01;17.00;99.90
1083;DHT22;530;51.448;7.238;2023-07-31T05:00:26;17.00;99.90
1083;DHT22;530;51.448;7.238;2023-07-31T05:02:52;17.10;99.90
1083;DHT22;530;51.448;7.238;2023-07-31T05:05:17;17.00;99.90
1083;DHT22;530;51.448;7.238;2023-07-31T05:07:43;17.00;99.90
1083;DHT22;530;51.448;7.238;2023-07-31T05:10:09;17.10;99.90
1083;DHT22;530;51.448;7.238;2023-07-31T05:12:35;17.10;99.90
1083;DHT22;530;51.448;7.238;2023-07-31T05:15:00;17.10;99.90
1083;DHT22;530;51.448;7.238;2023-07-31T05:17:26;17.10;99.90
1083;DHT22;530;51.448;7.238;2023-07-31T05:19:51;17.10;99.90
1083;DHT22;530;51.448;7.238;2023-07-31T05:22:17;17.10;99.90
1083;DHT22;530;51.448;7.238;2023-07-31T05:24:43;17.10;99.90
1083;DHT22;530;51.448;7.238;2023-07-31T05:27:08;17.10;99.90
1083;DHT22;530;51.448;7.238;2023-07-31T05:29:35;17.10;99.90
1083;DHT22;530;51.448;7.238;2023-07-31T05:32:01;17.10;99.90
1083;DHT22;530;51.448;7.238;2023-07-31T05:34:27;17.10;99.90
1083;DHT22;530;51.448;7.238;2023-07-31T05:36:52;17.10;99.90
1083;DHT22;530;51.448;7.238;2023-07-31T05:39:18;17.10;99.90
1083;DHT22;530;51.448;7.238;2023-07-31T05:41:45;17.20;99.90
1083;DHT22;530;51.448;7.238;2023-07-31T05:44:11;17.20;99.90
1083;DHT22;530;51.448;7.238;2023-07-31T05:46:36;17.20;99.90
1083;DHT22;530;51.448;7.238;2023-07-31T05:49:02;17.20;99.90
1083;DHT22;530;51.448;7.238;2023-07-31T05:51:28;17.20;99.90
1083;DHT22;530;51.448;7.238;2023-07-31T05:53:53;17.20;99.90
1083;DHT22;530;51.448;7.238;2023-07-31T05:56:19;17.20;99.90
1083;DHT22;530;51.448;7.238;2023-07-31T05:58:45;17.30;99.90
1083;DHT22;530;51.448;7.238;2023-07-31T06:01:10;17.20;99.90
1083;DHT22;530;51.448;7.238;2023-07-31T06:03:36;17.20;99.90
1083;DHT22;530;51.448;7.238;2023-07-31T06:06:02;17.20;99.90
1083;DHT22;530;51.448;7.238;2023-07-31T06:08:27;17.10;99.90
1083;DHT22;530;51.448;7.238;2023-07-31T06:10:53;17.10;99.90
1083;DHT22;530;51.448;7.238;2023-07-31T06:13:19;17.10;99.90
1083;DHT22;530;51.448;7.238;2023-07-31T06:15:44;17.10;99.90
1083;DHT22;530;51.448;7.238;2023-07-31T06:18:10;17.10;99.90
1083;DHT22;530;51.448;7.238;2023-07-31T06:20:36;17.10;99.90
1083;DHT22;530;51.448;7.238;2023-07-31T06:23:02;17.20;99.90
1083;DHT22;530;51.448;7.238;2023-07-31T06:25:29;17.20;99.90
1083;DHT22;530;51.448;7.238;2023-07-31T06:27:54;17.30;99.90
1083;DHT22;530;51.448;7.238;2023-07-31T06:30:20;17.30;99.90
1083;DHT22;530;51.448;7.238;2023-07-31T06:32:46;17.30;99.90
1083;DHT22;530;51.448;7.238;2023-07-31T06:35:11;17.30;99.90
1083;DHT22;530;51.448;7.238;2023-07-31T06:37:37;17.30;99.90
1083;DHT22;530;51.448;7.238;2023-07-31T06:40:06;17.30;99.90
1083;DHT22;530;51.448;7.238;2023-07-31T06:42:34;17.40;99.90
1083;DHT22;530;51.448;7.238;2023-07-31T06:45:01;17.40;99.90
1083;DHT22;530;51.448;7.238;2023-07-31T06:47:27;17.40;99.90
1083;DHT22;530;51.448;7.238;2023-07-31T06:49:53;17.40;99.90
1083;DHT22;530;51.448;7.238;2023-07-31T06:52:18;17.40;99.90
1083;DHT22;530;51.448;7.238;2023-07-31T06:54:50;17.40;99.90
1083;DHT22;530;51.448;7.238;2023-07-31T06:57:25;17.30;99.90
1083;DHT22;530;51.448;7.238;2023-07-31T06:59:51;17.30;99.90
1083;DHT22;530;51.448;7.238;2023-07-31T07:02:16;17.30;99.90
1083;DHT22;530;51.448;7.238;2023-07-31T07:04:42;17.30;99.90
1083;DHT22;530;51.448;7.238;2023-07-31T07:07:07;17.30;99.90
1083;DHT22;530;51.448;7.238;2023-07-31T07:09:33;17.30;99.90
1083;DHT22;530;51.448;7.238;2023-07-31T07:11:59;17.30;99.90
1083;DHT22;530;51.448;7.238;2023-07-31T07:14:24;17.30;99.90
1083;DHT22;530;51.448;7.238;2023-07-31T07:16:53;17.20;99.90
1083;DHT22;530;51.448;7.238;2023-07-31T07:19:18;17.30;99.90
1083;DHT22;530;51.448;7.238;2023-07-31T07:21:44;17.30;99.90
1083;DHT22;530;51.448;7.238;2023-07-31T07:24:10;17.40;99.90
1083;DHT22;530;51.448;7.238;2023-07-31T07:26:35;17.40;99.90
1083;DHT22;530;51.448;7.238;2023-07-31T07:29:01;17.30;99.90
1083;DHT22;530;51.448;7.238;2023-07-31T07:31:28;17.30;99.90
1083;DHT22;530;51.448;7.238;2023-07-31T07:33:54;17.30;99.90
1083;DHT22;530;51.448;7.238;2023-07-31T07:36:19;17.30;99.90
1083;DHT22;530;51.448;7.238;2023-07-31T07:38:45;17.20;99.90
1083;DHT22;530;51.448;7.238;2023-07-31T07:41:11;17.10;99.90
1083;DHT22;530;51.448;7.238;2023-07-31T07:43:36;17.20;99.90
1083;DHT22;530;51.448;7.238;2023-07-31T07:46:02;17.20;99.90
1083;DHT22;530;51.448;7.238;2023-07-31T07:48:28;17.20;99.90
1083;DHT22;530;51.448;7.238;2023-07-31T07:50:53;17.20;99.90
1083;DHT22;530;51.448;7.238;2023-07-31T07:53:19;17.20;99.90
1083;DHT22;530;51.448;7.238;2023-07-31T07:55:44;17.30;99.90
1083;DHT22;530;51.448;7.238;2023-07-31T07:58:10;17.20;99.90
1083;DHT22;530;51.448;7.238;2023-07-31T08:00:36;17.20;99.90
1083;DHT22;530;51.448;7.238;2023-07-31T08:03:01;17.20;99.90
1083;DHT22;530;51.448;7.238;2023-07-31T08:05:27;17.30;99.90
1083;DHT22;530;51.448;7.238;2023-07-31T08:07:53;17.30;99.90
1083;DHT22;530;51.448;7.238;2023-07-31T08:10:19;17.20;99.90
1083;DHT22;530;51.448;7.238;2023-07-31T08:12:44;17.20;99.90
1083;DHT22;530;51.448;7.238;2023-07-31T08:15:10;17.10;99.90
1083;DHT22;530;51.448;7.238;2023-07-31T08:17:36;17.10;99.90
1083;DHT22;530;51.448;7.238;2023-07-31T08:20:01;17.10;99.90
1083;DHT22;530;51.448;7.238;2023-07-31T08:22:27;17.00;99.90
1083;DHT22;530;51.448;7.238;2023-07-31T08:24:53;17.00;99.90
1083;DHT22;530;51.448;7.238;2023-07-31T08:27:19;17.10;99.90
1083;DHT22;530;51.448;7.238;2023-07-31T08:29:44;17.10;99.90
1083;DHT22;530;51.448;7.238;2023-07-31T08:32:10;17.10;99.90
1083;DHT22;530;51.448;7.238;2023-07-31T08:34:36;17.20;99.90
1083;DHT22;530;51.448;7.238;2023-07-31T08:37:01;17.20;99.90
1083;DHT22;530;51.448;7.238;2023-07-31T08:39:27;17.30;99.90
1083;DHT22;530;51.448;7.238;2023-07-31T08:41:58;17.30;99.90
1083;DHT22;530;51.448;7.238;2023-07-31T08:44:23;17.30;99.90
1083;DHT22;530;51.448;7.238;2023-07-31T08:46:50;17.30;99.90
1083;DHT22;530;51.448;7.238;2023-07-31T08:49:17;17.30;99.90
1083;DHT22;530;51.448;7.238;2023-07-31T08:51:43;17.30;99.90
1083;DHT22;530;51.448;7.238;2023-07-31T08:54:11;17.40;99.90
1083;DHT22;530;51.448;7.238;2023-07-31T08:56:37;17.40;99.90
1083;DHT22;530;51.448;7.238;2023-07-31T08:59:04;17.30;99.90
1083;DHT22;530;51.448;7.238;2023-07-31T09:01:30;17.20;99.90
1083;DHT22;530;51.448;7.238;2023-07-31T09:03:59;17.20;99.90
1083;DHT22;530;51.448;7.238;2023-07-31T09:06:28;17.20;99.90
1083;DHT22;530;51.448;7.238;2023-07-31T09:08:55;17.30;99.90
1083;DHT22;530;51.448;7.238;2023-07-31T09:11:21;17.20;99.90
1083;DHT22;530;51.448;7.238;2023-07-31T09:13:48;17.20;99.90
1083;DHT22;530;51.448;7.238;2023-07-31T09:16:15;17.20;99.90
1083;DHT22;530;51.448;7.238;2023-07-31T09:18:54;17.20;99.90
1083;DHT22;530;51.448;7.238;2023-07-31T09:21:22;17.20;99.90
1083;DHT22;530;51.448;7.238;2023-07-31T09:23:49;17.20;99.90
1083;DHT22;530;51.448;7.238;2023-07-31T09:26:35;17.10;99.90
1083;DHT22;530;51.448;7.238;2023-07-31T09:29:04;17.00;99.90
1083;DHT22;530;51.448;7.238;2023-07-31T09:31:40;17.10;99.90
1083;DHT22;530;51.448;7.238;2023-07-31T09:34:06;17.10;99.90
1083;DHT22;530;51.448;7.238;2023-07-31T09:36:32;17.10;99.90
1083;DHT22;530;51.448;7.238;2023-07-31T09:39:02;17.20;99.90
1083;DHT22;530;51.448;7.238;2023-07-31T09:41:30;17.20;99.90
1083;DHT22;530;51.448;7.238;2023-07-31T09:43:56;17.20;99.90
1083;DHT22;530;51.448;7.238;2023-07-31T09:46:21;17.20;99.90
1083;DHT22;530;51.448;7.238;2023-07-31T09:48:47;17.20;99.90
1083;DHT22;530;51.448;7.238;2023-07-31T09:51:13;17.20;99.90
1083;DHT22;530;51.448;7.238;2023-07-31T09:53:39;17.20;99.90
1083;DHT22;530;51.448;7.238;2023-07-31T09:56:05;17.30;99.90
1083;DHT22;530;51.448;7.238;2023-07-31T09:58:34;17.30;99.90
1083;DHT22;530;51.448;7.238;2023-07-31T10:01:02;17.30;99.90
1083;DHT22;530;51.448;7.238;2023-07-31T10:03:29;17.20;99.90
1083;DHT22;530;51.448;7.238;2023-07-31T10:05:58;17.30;99.90
1083;DHT22;530;51.448;7.238;2023-07-31T10:08:30;17.20;99.90
1083;DHT22;530;51.448;7.238;2023-07-31T10:10:59;17.30;99.90
1083;DHT22;530;51.448;7.238;2023-07-31T10:13:25;17.30;99.90
1083;DHT22;530;51.448;7.238;2023-07-31T10:15:54;17.20;99.90
1083;DHT22;530;51.448;7.238;2023-07-31T10:18:20;17.10;99.90
1083;DHT22;530;51.448;7.238;2023-07-31T10:20:47;17.10;99.90
1083;DHT22;530;51.448;7.238;2023-07-31T10:23:12;17.20;99.90
1083;DHT22;530;51.448;7.238;2023-07-31T10:25:39;17.20;99.90
1083;DHT22;530;51.448;7.238;2023-07-31T10:28:05;17.20;99.90
1083;DHT22;530;51.448;7.238;2023-07-31T10:30:32;17.20;99.90
1083;DHT22;530;51.448;7.238;2023-07-31T10:32:59;17.20;99.90
1083;DHT22;530;51.448;7.238;2023-07-31T10:35:25;17.30;99.90
1083;DHT22;530;51.448;7.238;2023-07-31T10:37:52;17.30;99.90
1083;DHT22;530;51.448;7.238;2023-07-31T10:40:23;17.30;99.90
1083;DHT22;530;51.448;7.238;2023-07-31T10:42:50;17.30;99.90
1083;DHT22;530;51.448;7.238;2023-07-31T10:45:37;17.30;99.90
1083;DHT22;530;51.448;7.238;2023-07-31T10:48:12;17.40;99.90
1083;DHT22;530;51.448;7.238;2023-07-31T10:50:40;17.40;99.90
1083;DHT22;530;51.448;7.238;2023-07-31T10:53:22;17.40;99.90
1083;DHT22;530;51.448;7.238;2023-07-31T10:55:49;17.40;99.90
1083;DHT22;530;51.448;7.238;2023-07-31T10:58:19;17.30;99.90
1083;DHT22;530;51.448;7.238;2023-07-31T11:00:45;17.30;99.90
1083;DHT22;530;51.448;7.238;2023-07-31T11:03:14;17.30;99.90
1083;DHT22;530;51.448;7.238;2023-07-31T11:11:10;17.20;99.90
1083;DHT22;530;51.448;7.238;2023-07-31T11:13:50;17.30;99.90
1083;DHT22;530;51.448;7.238;2023-07-31T11:16:19;17.30;99.90
1083;DHT22;530;51.448;7.238;2023-07-31T11:18:47;17.30;99.90
1083;DHT22;530;51.448;7.238;2023-07-31T11:21:16;17.30;99.90
1083;DHT22;530;51.448;7.238;2023-07-31T11:23:46;17.30;99.90
1083;DHT22;530;51.448;7.238;2023-07-31T11:26:11;17.40;99.90
1083;DHT22;530;51.448;7.238;2023-07-31T11:28:37;17.40;99.90
1083;DHT22;530;51.448;7.238;2023-07-31T11:31:05;17.40;99.90
1083;DHT22;530;51.448;7.238;2023-07-31T11:33:31;17.40;99.90
1083;DHT22;530;51.448;7.238;2023-07-31T11:35:57;17.40;99.90
1083;DHT22;530;51.448;7.238;2023-07-31T11:38:28;17.40;99.90
1083;DHT22;530;51.448;7.238;2023-07-31T11:40:55;17.40;99.90
1083;DHT22;530;51.448;7.238;2023-07-31T11:43:21;17.40;99.90
1083;DHT22;530;51.448;7.238;2023-07-31T11:45:52;17.50;99.90
1083;DHT22;530;51.448;7.238;2023-07-31T11:50:55;17.60;99.90
1083;DHT22;530;51.448;7.238;2023-07-31T11:56:03;17.60;99.90
1083;DHT22;530;51.448;7.238;2023-07-31T11:58:33;17.70;99.90
1083;DHT22;530;51.448;7.238;2023-07-31T12:00:59;17.70;99.90
1083;DHT22;530;51.448;7.238;2023-07-31T12:03:26;17.70;99.90
1083;DHT22;530;51.448;7.238;2023-07-31T12:05:53;17.70;99.90
1083;DHT22;530;51.448;7.238;2023-07-31T12:08:21;17.80;99.90
1083;DHT22;530;51.448;7.238;2023-07-31T12:10:50;17.80;99.90
1083;DHT22;530;51.448;7.238;2023-07-31T12:13:23;17.90;99.90
1083;DHT22;530;51.448;7.238;2023-07-31T12:15:54;17.90;99.90
1083;DHT22;530;51.448;7.238;2023-07-31T12:18:22;17.90;99.90
1083;DHT22;530;51.448;7.238;2023-07-31T12:20:53;18.00;99.90
1083;DHT22;530;51.448;7.238;2023-07-31T12:23:21;18.00;99.90
1083;DHT22;530;51.448;7.238;2023-07-31T12:28:28;18.00;99.90
1083;DHT22;530;51.448;7.238;2023-07-31T12:30:57;18.00;99.90
1083;DHT22;530;51.448;7.238;2023-07-31T12:33:36;18.00;99.90
1083;DHT22;530;51.448;7.238;2023-07-31T12:36:03;18.00;99.90
1083;DHT22;530;51.448;7.238;2023-07-31T12:38:30;18.00;99.90
1083;DHT22;530;51.448;7.238;2023-07-31T12:40:56;18.00;99.90
1083;DHT22;530;51.448;7.238;2023-07-31T12:43:21;18.00;99.90
1083;DHT22;530;51.448;7.238;2023-07-31T12:45:47;18.00;99.90
1083;DHT22;530;51.448;7.238;2023-07-31T12:48:13;17.90;99.90
1083;DHT22;530;51.448;7.238;2023-07-31T12:50:39;17.90;99.90
1083;DHT22;530;51.448;7.238;2023-07-31T12:53:05;17.90;99.90
1083;DHT22;530;51.448;7.238;2023-07-31T12:55:32;17.90;99.90
1083;DHT22;530;51.448;7.238;2023-07-31T12:58:00;17.90;99.90
1083;DHT22;530;51.448;7.238;2023-07-31T13:00:26;17.90;99.90
1083;DHT22;530;51.448;7.238;2023-07-31T13:02:51;17.90;99.90
1083;DHT22;530;51.448;7.238;2023-07-31T13:05:17;17.90;99.90
1083;DHT22;530;51.448;7.238;2023-07-31T13:07:45;18.00;99.90
1083;DHT22;530;51.448;7.238;2023-07-31T13:10:11;17.90;99.90
1083;DHT22;530;51.448;7.238;2023-07-31T13:12:36;18.00;99.90
1083;DHT22;530;51.448;7.238;2023-07-31T13:15:04;18.00;99.90
1083;DHT22;530;51.448;7.238;2023-07-31T13:17:29;18.00;99.90
1083;DHT22;530;51.448;7.238;2023-07-31T13:19:55;18.00;99.90
1083;DHT22;530;51.448;7.238;2023-07-31T13:22:21;17.90;99.90
1083;DHT22;530;51.448;7.238;2023-07-31T13:24:46;17.90;99.90
1083;DHT22;530;51.448;7.238;2023-07-31T13:27:13;17.90;99.90
1083;DHT22;530;51.448;7.238;2023-07-31T13:29:39;17.90;99.90
1083;DHT22;530;51.448;7.238;2023-07-31T13:32:05;18.00;99.90
1083;DHT22;530;51.448;7.238;2023-07-31T13:34:31;18.00;99.90
1083;DHT22;530;51.448;7.238;2023-07-31T13:36:56;17.90;99.90
1083;DHT22;530;51.448;7.238;2023-07-31T13:39:22;17.90;99.90
1083;DHT22;530;51.448;7.238;2023-07-31T13:41:48;17.90;99.90
1083;DHT22;530;51.448;7.238;2023-07-31T13:44:14;17.90;99.90
1083;DHT22;530;51.448;7.238;2023-07-31T13:46:40;17.90;99.90
1083;DHT22;530;51.448;7.238;2023-07-31T13:49:05;17.80;99.90
1083;DHT22;530;51.448;7.238;2023-07-31T13:51:31;17.80;99.90
1083;DHT22;530;51.448;7.238;2023-07-31T13:53:57;17.90;99.90
1083;DHT22;530;51.448;7.238;2023-07-31T13:56:23;17.90;99.90
1083;DHT22;530;51.448;7.238;2023-07-31T13:58:48;17.90;99.90
1083;DHT22;530;51.448;7.238;2023-07-31T14:01:14;17.90;99.90
1083;DHT22;530;51.448;7.238;2023-07-31T14:03:40;18.00;99.90
1083;DHT22;530;51.448;7.238;2023-07-31T14:06:05;18.00;99.90
1083;DHT22;530;51.448;7.238;2023-07-31T14:08:31;18.00;99.90
1083;DHT22;530;51.448;7.238;2023-07-31T14:10:57;18.10;99.90
1083;DHT22;530;51.448;7.238;2023-07-31T14:13:22;18.10;99.90
1083;DHT22;530;51.448;7.238;2023-07-31T14:15:48;18.10;99.90
1083;DHT22;530;51.448;7.238;2023-07-31T14:18:14;18.20;99.90
1083;DHT22;530;51.448;7.238;2023-07-31T14:20:39;18.20;99.90
1083;DHT22;530;51.448;7.238;2023-07-31T14:23:05;18.30;99.90
1083;DHT22;530;51.448;7.238;2023-07-31T14:25:31;18.30;99.90
1083;DHT22;530;51.448;7.238;2023-07-31T14:27:57;18.40;99.90
1083;DHT22;530;51.448;7.238;2023-07-31T14:30:23;18.50;99.90
1083;DHT22;530;51.448;7.238;2023-07-31T14:32:48;18.50;99.90
1083;DHT22;530;51.448;7.238;2023-07-31T14:35:14;18.60;99.90
1083;DHT22;530;51.448;7.238;2023-07-31T14:37:41;18.70;99.90
1083;DHT22;530;51.448;7.238;2023-07-31T14:40:08;18.70;99.90
1083;DHT22;530;51.448;7.238;2023-07-31T14:42:35;18.80;99.90
1083;DHT22;530;51.448;7.238;2023-07-31T14:45:01;18.90;99.90
1083;DHT22;530;51.448;7.238;2023-07-31T14:47:26;18.80;99.90
1083;DHT22;530;51.448;7.238;2023-07-31T14:49:52;18.80;99.90
1083;DHT22;530;51.448;7.238;2023-07-31T14:52:18;18.80;99.90
1083;DHT22;530;51.448;7.238;2023-07-31T14:54:44;18.70;99.90
1083;DHT22;530;51.448;7.238;2023-07-31T14:57:10;18.70;99.90
1083;DHT22;530;51.448;7.238;2023-07-31T14:59:36;18.70;99.90
1083;DHT22;530;51.448;7.238;2023-07-31T15:02:01;18.70;99.90
1083;DHT22;530;51.448;7.238;2023-07-31T15:04:28;18.70;99.90
1083;DHT22;530;51.448;7.238;2023-07-31T15:06:53;18.60;99.90
1083;DHT22;530;51.448;7.238;2023-07-31T15:09:19;18.60;99.90
1083;DHT22;530;51.448;7.238;2023-07-31T15:11:45;18.60;99.90
1083;DHT22;530;51.448;7.238;2023-07-31T15:14:10;18.70;99.90
1083;DHT22;530;51.448;7.238;2023-07-31T15:16:36;18.60;99.90
1083;DHT22;530;51.448;7.238;2023-07-31T15:19:02;18.60;99.90
1083;DHT22;530;51.448;7.238;2023-07-31T15:21:27;18.60;99.90
1083;DHT22;530;51.448;7.238;2023-07-31T15:23:53;18.60;99.90
1083;DHT22;530;51.448;7.238;2023-07-31T15:26:19;18.50;99.90
1083;DHT22;530;51.448;7.238;2023-07-31T15:28:48;18.50;99.90
1083;DHT22;530;51.448;7.238;2023-07-31T15:31:14;18.40;99.90
1083;DHT22;530;51.448;7.238;2023-07-31T15:33:40;18.50;99.90
1083;DHT22;530;51.448;7.238;2023-07-31T15:36:06;18.50;99.90
1083;DHT22;530;51.448;7.238;2023-07-31T15:38:32;18.40;99.90
1083;DHT22;530;51.448;7.238;2023-07-31T15:40:58;18.40;99.90
1083;DHT22;530;51.448;7.238;2023-07-31T15:43:24;18.50;99.90
1083;DHT22;530;51.448;7.238;2023-07-31T15:45:50;18.40;99.90
1083;DHT22;530;51.448;7.238;2023-07-31T15:48:15;18.40;99.90
1083;DHT22;530;51.448;7.238;2023-07-31T15:50:41;18.40;99.90
1083;DHT22;530;51.448;7.238;2023-07-31T15:53:07;18.50;99.90
1083;DHT22;530;51.448;7.238;2023-07-31T15:55:33;18.50;99.90
1083;DHT22;530;51.448;7.238;2023-07-31T15:57:59;18.50;99.90
1083;DHT22;530;51.448;7.238;2023-07-31T16:00:24;18.50;99.90
1083;DHT22;530;51.448;7.238;2023-07-31T16:02:50;18.50;99.90
1083;DHT22;530;51.448;7.238;2023-07-31T16:05:16;18.60;99.90
1083;DHT22;530;51.448;7.238;2023-07-31T16:07:41;18.60;99.90
1083;DHT22;530;51.448;7.238;2023-07-31T16:10:08;18.70;99.90
1083;DHT22;530;51.448;7.238;2023-07-31T16:12:33;18.70;99.90
1083;DHT22;530;51.448;7.238;2023-07-31T16:14:59;18.70;99.90
1083;DHT22;530;51.448;7.238;2023-07-31T16:17:25;18.70;99.90
1083;DHT22;530;51.448;7.238;2023-07-31T16:19:50;18.70;99.90
1083;DHT22;530;51.448;7.238;2023-07-31T16:22:16;18.70;99.90
1083;DHT22;530;51.448;7.238;2023-07-31T16:24:42;18.70;99.90
1083;DHT22;530;51.448;7.238;2023-07-31T16:27:07;18.60;99.90
1083;DHT22;530;51.448;7.238;2023-07-31T16:29:33;18.60;99.90